Time;durP1;ratioP1;P1;durP2;ratioP2;P2;SDS_P1;SDS_P2;PMS_P1;PMS_P2;Temp;Humidity;BMP_temperature;BMP_pressure;BME280_temperature;BME280_humidity;BME280_pressure;Samples;Min_cycle;Max_cycle;Signal;HPM_P1;HPM_P2
2023/02/03 13:20:52;;;;;;;1.95;1.73;;;5.50;99.90;;;;;;5084813;28;20250;-79
2023/02/03 13:23:18;;;;;;;3.17;1.70;;;5.40;99.90;;;;;;5085289;28;20435;-80
2023/02/03 13:26:09;;;;;;;2.10;2.00;;;5.50;99.90;;;;;;5084260;28;20580;-79
2023/02/03 13:28:56;;;;;;;1.85;1.60;;;5.50;99.90;;;;;;5078166;28;20048;-79
2023/02/03 13:31:39;;;;;;;1.67;1.58;;;5.50;99.90;;;;;;5067004;28;20028;-79
2023/02/03 13:34:15;;;;;;;1.88;1.40;;;5.60;99.90;;;;;;5056611;28;20106;-78
2023/02/03 13:37:03;;;;;;;1.45;1.35;;;5.50;99.90;;;;;;5061614;28;20029;-79
2023/02/03 13:39:35;;;;;;;1.08;1.00;;;5.50;99.90;;;;;;5064775;28;20024;-80
2023/02/03 13:42:15;;;;;;;1.30;1.20;;;5.60;99.90;;;;;;5062585;28;20532;-77
2023/02/03 13:44:45;;;;;;;1.10;1.00;;;5.50;99.90;;;;;;5063115;28;20027;-79
2023/02/03 13:47:23;;;;;;;2.47;1.15;;;5.50;99.90;;;;;;5070651;28;20028;-79
2023/02/03 13:50:00;;;;;;;1.13;1.02;;;5.50;99.90;;;;;;5052186;28;20033;-80
2023/02/03 13:52:39;;;;;;;0.93;0.90;;;5.50;99.90;;;;;;5066739;28;20024;-79
2023/02/03 13:55:07;;;;;;;0.80;0.80;;;5.50;99.90;;;;;;5057954;28;20040;-78
2023/02/03 13:57:36;;;;;;;1.88;0.90;;;5.50;99.90;;;;;;5045534;28;20029;-78
2023/02/03 14:00:26;;;;;;;1.55;0.90;;;5.50;99.90;;;;;;5057198;28;20021;-79
2023/02/03 14:02:54;;;;;;;0.70;0.70;;;5.50;99.90;;;;;;5059760;28;20090;-80
2023/02/03 14:05:43;;;;;;;0.60;0.60;;;5.50;99.90;;;;;;5061042;28;20106;-80
2023/02/03 14:08:24;;;;;;;0.63;0.60;;;5.60;99.90;;;;;;5081249;28;20771;-82
2023/02/03 14:11:28;;;;;;;1.75;0.50;;;5.60;99.90;;;;;;5051064;28;20053;-80
2023/02/03 14:14:09;;;;;;;0.40;0.40;;;5.60;99.90;;;;;;5063269;28;20659;-79
2023/02/03 14:16:48;;;;;;;1.00;0.60;;;5.60;99.90;;;;;;5063249;28;20063;-78
2023/02/03 14:19:30;;;;;;;0.40;0.40;;;5.60;99.90;;;;;;5065681;28;20055;-79
2023/02/03 14:21:57;;;;;;;0.73;0.55;;;5.60;99.90;;;;;;5052681;28;20032;-78
2023/02/03 14:24:38;;;;;;;0.95;0.40;;;5.50;99.90;;;;;;5046246;28;20033;-79
2023/02/03 14:27:22;;;;;;;0.60;0.40;;;5.60;99.90;;;;;;5063108;28;20104;-78
2023/02/03 14:30:07;;;;;;;0.60;0.28;;;5.50;99.90;;;;;;5065210;28;20075;-80
2023/02/03 14:32:49;;;;;;;0.30;0.30;;;5.50;99.90;;;;;;5050127;28;20025;-79
2023/02/03 14:35:17;;;;;;;1.38;0.30;;;5.60;99.90;;;;;;5062694;28;20025;-80
2023/02/03 14:37:54;;;;;;;0.22;0.22;;;5.60;99.90;;;;;;5034022;28;20036;-78
2023/02/03 14:40:26;;;;;;;0.30;0.30;;;5.60;99.90;;;;;;5053436;28;20105;-80
2023/02/03 14:43:22;;;;;;;0.88;0.40;;;5.50;99.90;;;;;;5035041;28;20035;-80
2023/02/03 14:45:50;;;;;;;;;;;5.50;99.90;;;;;;5055637;28;20103;-81
2023/02/03 14:48:25;;;;;;;0.57;0.30;;;5.50;99.90;;;;;;5053063;28;19916;-81
2023/02/03 14:51:21;;;;;;;0.30;0.22;;;5.50;99.90;;;;;;5052550;28;20033;-80
2023/02/03 14:54:21;;;;;;;0.20;0.20;;;5.50;99.90;;;;;;5053147;28;20032;-79
2023/02/03 14:57:18;;;;;;;1.38;0.10;;;5.50;99.90;;;;;;5045611;28;20587;-79
2023/02/03 15:00:04;;;;;;;1.10;0.15;;;5.50;99.90;;;;;;5054997;28;20032;-79
2023/02/03 15:02:32;;;;;;;0.10;0.10;;;5.50;99.90;;;;;;5053353;28;20033;-80
2023/02/03 15:05:13;;;;;;;1.88;0.20;;;5.50;99.90;;;;;;5056225;28;20033;-80
2023/02/03 15:07:47;;;;;;;0.17;0.17;;;5.50;99.90;;;;;;5048485;28;20044;-79
2023/02/03 15:10:20;;;;;;;0.17;0.17;;;5.50;99.90;;;;;;5058364;28;20033;-79
2023/02/03 15:12:48;;;;;;;0.22;0.22;;;5.50;99.90;;;;;;5037611;28;20040;-80
2023/02/03 15:15:25;;;;;;;1.85;0.40;;;5.50;99.90;;;;;;5055214;28;20025;-79
2023/02/03 15:17:54;;;;;;;0.35;0.30;;;5.60;99.90;;;;;;5052358;28;20095;-78
2023/02/03 15:20:34;;;;;;;0.80;0.20;;;5.60;99.90;;;;;;5051673;28;20068;-79
2023/02/03 15:23:01;;;;;;;0.75;0.30;;;5.60;99.90;;;;;;5058011;28;20078;-80
2023/02/03 15:25:29;;;;;;;0.30;0.30;;;5.50;99.90;;;;;;5038038;28;20033;-79
2023/02/03 15:28:19;;;;;;;0.30;0.30;;;5.50;99.90;;;;;;5036175;28;20041;-78
2023/02/03 15:30:46;;;;;;;0.50;0.30;;;5.60;99.90;;;;;;5036264;28;20035;-79
2023/02/03 15:33:15;;;;;;;0.50;0.30;;;5.60;99.90;;;;;;5042515;28;20031;-77
2023/02/03 15:35:44;;;;;;;0.25;0.25;;;5.60;99.90;;;;;;5043394;28;20041;-79
2023/02/03 15:38:18;;;;;;;0.25;0.25;;;5.60;99.90;;;;;;5049893;28;20026;-79
2023/02/03 15:40:49;;;;;;;0.70;0.20;;;5.60;99.90;;;;;;5050356;28;20027;-79
2023/02/03 15:43:24;;;;;;;9.52;0.80;;;5.60;99.90;;;;;;5044913;28;20100;-79
2023/02/03 15:45:59;;;;;;;0.20;0.20;;;5.60;99.90;;;;;;5052552;28;20029;-79
2023/02/03 15:48:35;;;;;;;0.70;0.30;;;5.60;99.90;;;;;;5049163;28;20029;-79
2023/02/03 15:51:26;;;;;;;0.17;0.17;;;5.60;99.90;;;;;;5036224;28;20061;-79
2023/02/03 15:53:58;;;;;;;0.13;0.10;;;5.50;99.90;;;;;;5049348;28;20017;-80
2023/02/03 15:56:39;;;;;;;0.85;0.30;;;5.50;99.90;;;;;;5046521;28;20068;-78
2023/02/03 15:59:21;;;;;;;1.10;0.30;;;5.50;99.90;;;;;;5050742;28;20025;-81
2023/02/03 16:01:48;;;;;;;43.33;2.45;;;5.50;99.90;;;;;;5055592;28;20040;-81
2023/02/03 16:04:14;;;;;;;1.65;0.40;;;5.50;99.90;;;;;;5052710;28;20075;-80
2023/02/03 16:06:46;;;;;;;0.60;0.60;;;5.50;99.90;;;;;;5053237;28;20586;-80
2023/02/03 16:09:28;;;;;;;0.63;0.60;;;5.50;99.90;;;;;;5052689;28;20512;-80
2023/02/03 16:12:10;;;;;;;1.00;0.90;;;5.60;99.90;;;;;;5050609;28;20025;-79
2023/02/03 16:14:36;;;;;;;0.93;0.73;;;5.60;99.90;;;;;;5052837;28;20392;-79
2023/02/03 16:17:03;;;;;;;2.05;0.80;;;5.60;99.90;;;;;;5051966;28;20025;-83
2023/02/03 16:19:36;;;;;;;0.82;0.82;;;5.60;99.90;;;;;;5054721;28;20049;-80
2023/02/03 16:22:02;;;;;;;1.63;0.57;;;5.70;99.90;;;;;;5045493;28;20374;-81
2023/02/03 16:24:31;;;;;;;1.35;0.88;;;5.70;99.90;;;;;;5019493;28;20073;-78
2023/02/03 16:27:27;;;;;;;0.60;0.60;;;5.70;99.90;;;;;;5057448;28;20425;-79
2023/02/03 16:52:24;;;;;;;2.25;0.50;;;5.70;99.90;;;;;;5062079;28;20559;-81
2023/02/03 16:54:51;;;;;;;1.80;0.30;;;5.80;99.90;;;;;;5034040;28;20116;-80
2023/02/03 16:57:17;;;;;;;0.52;0.40;;;5.80;99.90;;;;;;5031728;28;20507;-78
2023/02/03 16:59:44;;;;;;;0.40;0.40;;;5.80;99.90;;;;;;5037552;28;20036;-79
2023/02/03 17:02:10;;;;;;;0.50;0.50;;;5.80;99.90;;;;;;5049013;28;20025;-78
2023/02/03 17:04:35;;;;;;;0.57;0.57;;;5.80;99.90;;;;;;5035262;28;20033;-79
2023/02/03 17:07:04;;;;;;;0.30;0.30;;;5.80;99.90;;;;;;5049096;28;20092;-81
2023/02/03 17:09:33;;;;;;;0.45;0.45;;;5.80;99.90;;;;;;5032091;28;20065;-79
2023/02/03 17:12:03;;;;;;;2.85;0.40;;;5.80;99.90;;;;;;5050604;28;20452;-79
2023/02/03 17:14:29;;;;;;;18.10;1.00;;;5.80;99.90;;;;;;5028687;28;20041;-78
2023/02/03 17:16:55;;;;;;;1.13;0.60;;;5.80;99.90;;;;;;5027102;28;20058;-79
2023/02/03 17:19:21;;;;;;;4.55;0.70;;;5.80;99.90;;;;;;5050087;28;20033;-77
2023/02/03 17:21:47;;;;;;;0.40;0.40;;;5.80;99.90;;;;;;5046690;28;20103;-81
2023/02/03 17:24:16;;;;;;;0.40;0.40;;;5.80;99.90;;;;;;5041860;28;20736;-80
2023/02/03 17:26:41;;;;;;;1.85;0.30;;;5.80;99.90;;;;;;5047460;28;20033;-78
2023/02/03 17:29:09;;;;;;;5.22;0.68;;;5.80;99.90;;;;;;5036081;28;20029;-80
2023/02/03 17:31:35;;;;;;;1.52;0.40;;;5.70;99.90;;;;;;5050127;28;20025;-79
2023/02/03 17:34:00;;;;;;;0.85;0.50;;;5.80;99.90;;;;;;5052920;28;20053;-80
2023/02/03 17:36:26;;;;;;;1.67;0.52;;;5.80;99.90;;;;;;5032892;28;20022;-80
2023/02/03 17:38:57;;;;;;;21.77;1.67;;;5.80;99.90;;;;;;5050072;28;20028;-81
2023/02/03 17:41:24;;;;;;;33.88;2.30;;;5.70;99.90;;;;;;5050529;28;20041;-79
2023/02/03 17:43:50;;;;;;;1.45;0.50;;;5.70;99.90;;;;;;5038869;28;20222;-81
2023/02/03 17:46:22;;;;;;;0.75;0.57;;;5.70;99.90;;;;;;5049633;28;20140;-80
2023/02/03 17:48:48;;;;;;;4.68;0.90;;;5.60;99.90;;;;;;5041677;28;20484;-78
2023/02/03 17:51:16;;;;;;;0.80;0.45;;;5.60;99.90;;;;;;5047974;28;20052;-79
2023/02/03 17:53:43;;;;;;;2.35;0.77;;;5.60;99.90;;;;;;5044400;28;20032;-80
2023/02/03 17:56:11;;;;;;;3.30;0.60;;;5.60;99.90;;;;;;5045215;28;20025;-79
2023/02/03 17:58:38;;;;;;;2.65;0.88;;;5.60;99.90;;;;;;5040135;28;20676;-80
2023/02/03 18:01:15;;;;;;;2.03;0.63;;;5.50;99.90;;;;;;5052630;28;20036;-79
2023/02/03 18:03:45;;;;;;;4.57;0.70;;;5.50;99.90;;;;;;5050176;28;20060;-78
2023/02/03 18:06:12;;;;;;;2.88;0.60;;;5.50;99.90;;;;;;5050661;28;20044;-76
2023/02/03 18:08:39;;;;;;;3.83;0.80;;;5.50;99.90;;;;;;5041973;28;20123;-78
2023/02/03 18:11:05;;;;;;;2.97;0.95;;;5.50;99.90;;;;;;5038870;28;20083;-79
2023/02/03 18:13:35;;;;;;;2.78;0.50;;;5.50;99.90;;;;;;5038205;28;20444;-78
2023/02/03 18:16:02;;;;;;;4.75;0.82;;;5.40;99.90;;;;;;5045204;28;20116;-78
2023/02/03 18:18:27;;;;;;;3.83;0.70;;;5.30;99.90;;;;;;5047556;28;20029;-78
2023/02/03 18:20:54;;;;;;;4.95;1.00;;;5.30;99.90;;;;;;5043358;28;20048;-78
2023/02/03 18:23:20;;;;;;;6.60;0.90;;;5.30;99.90;;;;;;5047085;28;20804;-79
2023/02/03 18:25:53;;;;;;;7.20;1.40;;;5.30;99.90;;;;;;5061487;28;20108;-79
2023/02/03 18:28:19;;;;;;;5.00;0.90;;;5.20;99.90;;;;;;5057359;28;20034;-78
2023/02/03 18:30:44;;;;;;;5.68;0.82;;;5.20;99.90;;;;;;5040462;28;20443;-78
2023/02/03 18:33:11;;;;;;;12.77;0.95;;;5.10;99.90;;;;;;5031230;28;20052;-78
2023/02/03 18:35:37;;;;;;;4.88;0.80;;;5.10;99.90;;;;;;5049277;28;20029;-78
2023/02/03 18:38:03;;;;;;;3.45;1.25;;;5.00;99.90;;;;;;5048988;28;20036;-79
2023/02/03 18:40:28;;;;;;;3.83;1.10;;;5.00;99.90;;;;;;5044420;28;20028;-78
2023/02/03 18:42:55;;;;;;;6.32;0.75;;;5.00;99.90;;;;;;5046759;28;20060;-78
2023/02/03 18:45:21;;;;;;;8.93;1.40;;;4.90;99.90;;;;;;5031353;28;20032;-77
2023/02/03 18:47:47;;;;;;;3.95;0.75;;;4.90;99.90;;;;;;5043575;28;20033;-77
2023/02/03 18:50:13;;;;;;;5.53;0.85;;;4.80;99.90;;;;;;5046651;28;20021;-77
2023/02/03 18:52:38;;;;;;;4.90;1.20;;;4.80;99.90;;;;;;5046507;28;20196;-78
2023/02/03 18:55:04;;;;;;;8.23;1.00;;;4.70;99.90;;;;;;5041264;28;20115;-77
2023/02/03 18:57:30;;;;;;;12.32;1.30;;;4.70;99.90;;;;;;5042209;28;20032;-78
2023/02/03 18:59:56;;;;;;;6.55;1.05;;;4.60;99.90;;;;;;5043270;28;20511;-78
2023/02/03 19:02:24;;;;;;;6.63;0.98;;;4.50;99.90;;;;;;5064618;28;20493;-77
2023/02/03 19:04:51;;;;;;;6.90;1.00;;;4.50;99.90;;;;;;5029324;28;20030;-78
2023/02/03 19:07:16;;;;;;;4.32;0.98;;;4.40;99.90;;;;;;5043175;28;20430;-78
2023/02/03 19:09:42;;;;;;;4.53;0.63;;;4.40;99.90;;;;;;5052820;28;20110;-78
2023/02/03 19:12:08;;;;;;;5.13;1.00;;;4.30;99.90;;;;;;5046069;28;20493;-77
2023/02/03 19:14:34;;;;;;;4.70;1.10;;;4.30;99.90;;;;;;5032824;28;20029;-79
2023/02/03 19:17:01;;;;;;;10.93;0.93;;;4.30;99.90;;;;;;5048037;28;20486;-79
2023/02/03 19:19:27;;;;;;;5.57;0.90;;;4.20;99.90;;;;;;5046730;28;20048;-78
2023/02/03 19:21:53;;;;;;;5.43;0.90;;;4.20;99.90;;;;;;5031849;28;20037;-77
2023/02/03 19:24:18;;;;;;;6.15;0.80;;;4.20;99.90;;;;;;5050996;28;20035;-79
2023/02/03 19:26:45;;;;;;;27.67;1.38;;;4.10;99.90;;;;;;5041747;28;20037;-79
2023/02/03 19:29:10;;;;;;;9.38;0.90;;;4.10;99.90;;;;;;5045947;28;20029;-78
2023/02/03 19:31:36;;;;;;;4.35;0.60;;;4.10;99.90;;;;;;5048322;28;20071;-78
2023/02/03 19:34:02;;;;;;;5.57;1.00;;;4.10;99.90;;;;;;5048140;28;20395;-78
2023/02/03 19:36:29;;;;;;;9.82;1.42;;;4.10;99.90;;;;;;5048028;28;20025;-77
2023/02/03 19:38:54;;;;;;;4.07;1.08;;;4.10;99.90;;;;;;5046470;28;20029;-79
2023/02/03 19:41:21;;;;;;;11.38;1.20;;;4.10;99.90;;;;;;5048433;28;20025;-78
2023/02/03 19:43:50;;;;;;;6.68;1.10;;;4.10;99.90;;;;;;5047456;28;20540;-79
2023/02/03 19:46:18;;;;;;;6.40;0.90;;;4.10;99.90;;;;;;5047687;28;20036;-79
2023/02/03 19:48:43;;;;;;;10.20;1.08;;;4.00;99.90;;;;;;5048649;28;20041;-77
2023/02/03 19:51:10;;;;;;;6.55;1.00;;;4.10;99.90;;;;;;5048079;28;20090;-78
2023/02/03 19:53:36;;;;;;;7.30;1.25;;;4.00;99.90;;;;;;5078386;28;20044;-78
2023/02/03 19:56:03;;;;;;;7.55;1.35;;;4.10;99.90;;;;;;5039935;28;20074;-78
2023/02/03 19:58:29;;;;;;;10.60;1.13;;;4.00;99.90;;;;;;5046233;28;20055;-78
2023/02/03 20:00:55;;;;;;;9.23;1.10;;;4.00;99.90;;;;;;5043590;28;20033;-78
2023/02/03 20:03:22;;;;;;;2.42;0.80;;;4.00;99.90;;;;;;5042916;28;20040;-79
2023/02/03 20:05:49;;;;;;;7.57;0.85;;;4.00;99.90;;;;;;5048629;28;20588;-79
2023/02/03 20:08:15;;;;;;;5.63;1.35;;;4.00;99.90;;;;;;5052075;28;20037;-77
2023/02/03 20:10:43;;;;;;;5.70;1.00;;;4.00;99.90;;;;;;5044890;28;20032;-78
2023/02/03 20:13:10;;;;;;;6.28;1.15;;;4.00;99.90;;;;;;5045526;28;20049;-77
2023/02/03 20:15:36;;;;;;;5.95;1.13;;;4.00;99.90;;;;;;5047103;28;20029;-78
2023/02/03 20:18:05;;;;;;;6.18;1.13;;;4.00;99.90;;;;;;5043040;28;20524;-78
2023/02/03 20:20:31;;;;;;;17.15;1.42;;;4.00;99.90;;;;;;5038027;28;20064;-79
2023/02/03 20:22:57;;;;;;;7.25;1.05;;;4.00;99.90;;;;;;5048467;28;20043;-79
2023/02/03 20:25:23;;;;;;;7.72;1.00;;;4.00;99.90;;;;;;5046373;28;20033;-78
2023/02/03 20:27:49;;;;;;;11.55;1.33;;;4.00;99.90;;;;;;5040427;28;20048;-79
2023/02/03 20:30:15;;;;;;;7.00;1.02;;;4.00;99.90;;;;;;5041778;28;20382;-77
2023/02/03 20:32:40;;;;;;;7.88;1.20;;;3.90;99.90;;;;;;5028541;28;20040;-78
2023/02/03 20:35:07;;;;;;;7.82;1.20;;;3.90;99.90;;;;;;5041040;28;20030;-78
2023/02/03 20:37:35;;;;;;;7.03;0.95;;;3.90;99.90;;;;;;5060666;28;20501;-78
2023/02/03 20:40:01;;;;;;;8.05;1.30;;;3.90;99.90;;;;;;5040658;28;20034;-77
2023/02/03 20:42:27;;;;;;;4.70;1.42;;;3.90;99.90;;;;;;5035823;28;20591;-78
2023/02/03 20:44:54;;;;;;;6.78;1.27;;;3.90;99.90;;;;;;5042053;28;20124;-78
2023/02/03 20:47:21;;;;;;;7.55;1.02;;;3.90;99.90;;;;;;5042826;28;20030;-78
2023/02/03 20:49:48;;;;;;;8.65;1.55;;;3.90;99.90;;;;;;5041611;28;20052;-78
2023/02/03 20:52:20;;;;;;;16.15;2.15;;;3.90;99.90;;;;;;5037985;28;20057;-77
2023/02/03 20:54:46;;;;;;;8.43;1.50;;;3.90;99.90;;;;;;5043771;28;20025;-77
2023/02/03 20:57:15;;;;;;;5.13;1.38;;;3.90;99.90;;;;;;5039849;28;20477;-77
2023/02/03 20:59:43;;;;;;;5.75;1.35;;;3.90;99.90;;;;;;5039278;28;20072;-77
2023/02/03 21:05:26;;;;;;;8.80;1.70;;;3.90;99.90;;;;;;5041092;28;20041;-78
2023/02/03 21:07:52;;;;;;;7.22;1.00;;;3.80;99.90;;;;;;5041043;28;20029;-77
2023/02/03 21:10:21;;;;;;;10.77;1.33;;;3.80;99.90;;;;;;5040560;28;20065;-78
2023/02/03 21:12:47;;;;;;;6.82;1.35;;;3.80;99.90;;;;;;5037284;28;20505;-76
2023/02/03 21:15:26;;;;;;;5.30;1.15;;;3.80;99.90;;;;;;5022900;28;20025;-77
2023/02/03 21:17:52;;;;;;;9.75;1.27;;;3.80;99.90;;;;;;5023540;28;20025;-76
2023/02/03 21:20:27;;;;;;;9.73;1.38;;;3.80;99.90;;;;;;5041310;28;20508;-76
2023/02/03 21:22:54;;;;;;;5.97;1.13;;;3.80;99.90;;;;;;5037616;28;20029;-79
2023/02/03 21:25:24;;;;;;;11.95;1.40;;;3.80;99.90;;;;;;5040258;28;20021;-78
2023/02/03 21:27:50;;;;;;;7.97;1.10;;;3.80;99.90;;;;;;5041826;28;20548;-78
2023/02/03 21:30:29;;;;;;;4.80;1.23;;;3.80;99.90;;;;;;5020484;28;20029;-78
2023/02/03 21:32:56;;;;;;;3.67;1.00;;;3.80;99.90;;;;;;5041289;28;20096;-77
2023/02/03 21:35:38;;;;;;;5.20;1.00;;;3.80;99.90;;;;;;5044685;28;20038;-78
2023/02/03 21:38:30;;;;;;;12.00;1.55;;;3.80;99.90;;;;;;5044182;28;20448;-78
2023/02/03 21:40:58;;;;;;;4.93;1.08;;;3.80;99.90;;;;;;5036948;28;20585;-78
2023/02/03 21:43:24;;;;;;;9.57;0.98;;;3.70;99.90;;;;;;5044602;28;20048;-77
2023/02/03 21:45:50;;;;;;;9.65;1.30;;;3.70;99.90;;;;;;5035372;28;20438;-77
2023/02/03 21:48:34;;;;;;;12.13;1.35;;;3.70;99.90;;;;;;5040269;28;20509;-78
2023/02/03 21:51:25;;;;;;;5.35;1.40;;;3.70;99.90;;;;;;5080009;28;20780;-79
2023/02/03 21:53:56;;;;;;;14.60;1.80;;;3.80;99.90;;;;;;5048663;28;20556;-77
2023/02/03 21:56:44;;;;;;;5.18;1.95;;;3.80;99.90;;;;;;5047233;28;20568;-79
2023/02/03 21:59:27;;;;;;;3.20;1.20;;;3.70;99.90;;;;;;5049390;28;20088;-79
2023/02/03 22:01:53;;;;;;;14.57;1.73;;;3.80;99.90;;;;;;5047305;28;20108;-77
2023/02/03 22:04:18;;;;;;;8.95;1.38;;;3.80;99.90;;;;;;5034502;28;20128;-77
2023/02/03 22:06:47;;;;;;;8.43;1.40;;;3.70;99.90;;;;;;5038381;28;20044;-77
2023/02/03 22:09:16;;;;;;;6.88;1.10;;;3.70;99.90;;;;;;5044054;28;20038;-79
2023/02/03 22:11:42;;;;;;;9.85;1.38;;;3.70;99.90;;;;;;5043626;28;20152;-78
2023/02/03 22:14:07;;;;;;;16.90;1.88;;;3.70;99.90;;;;;;5047033;28;20083;-78
2023/02/03 22:16:33;;;;;;;6.35;1.27;;;3.70;99.90;;;;;;5029485;28;20040;-78
2023/02/03 22:18:59;;;;;;;8.85;1.27;;;3.70;99.90;;;;;;5046327;28;20110;-77
2023/02/03 22:21:25;;;;;;;6.75;1.10;;;3.70;99.90;;;;;;5047947;28;20026;-79
2023/02/03 22:23:51;;;;;;;7.20;1.63;;;3.70;99.90;;;;;;5032186;28;20119;-78
2023/02/03 22:26:17;;;;;;;7.28;1.67;;;3.70;99.90;;;;;;5046089;28;20033;-78
2023/02/03 22:28:44;;;;;;;14.30;1.77;;;3.70;99.90;;;;;;5046606;28;20559;-77
2023/02/03 22:31:11;;;;;;;11.00;1.90;;;3.70;99.90;;;;;;5041638;28;20037;-77
2023/02/03 22:33:38;;;;;;;9.15;1.40;;;3.70;99.90;;;;;;5040797;28;20033;-78
2023/02/03 22:36:05;;;;;;;8.57;1.10;;;3.70;99.90;;;;;;5044136;28;20021;-77
2023/02/03 22:38:32;;;;;;;6.38;1.20;;;3.60;99.90;;;;;;5056762;28;20104;-78
2023/02/03 22:40:58;;;;;;;8.98;1.30;;;3.60;99.90;;;;;;5039797;28;20660;-77
2023/02/03 22:43:24;;;;;;;10.90;2.58;;;3.70;99.90;;;;;;5040571;28;20028;-77
2023/02/03 22:45:50;;;;;;;7.13;1.08;;;3.70;99.90;;;;;;5044659;28;20120;-77
2023/02/03 22:48:16;;;;;;;9.85;1.33;;;3.60;99.90;;;;;;5043441;28;20059;-78
2023/02/03 22:50:42;;;;;;;10.05;1.17;;;3.70;99.90;;;;;;5047765;28;20500;-79
2023/02/03 22:53:08;;;;;;;6.60;0.98;;;3.70;99.90;;;;;;5050874;28;20128;-78
2023/02/03 22:55:35;;;;;;;9.90;1.33;;;3.60;99.90;;;;;;5043755;28;20111;-77
2023/02/03 22:58:01;;;;;;;5.65;1.23;;;3.70;99.90;;;;;;5047471;28;20080;-77
2023/02/03 23:00:27;;;;;;;10.05;1.20;;;3.70;99.90;;;;;;5045072;28;20052;-77
2023/02/03 23:02:53;;;;;;;7.13;0.95;;;3.60;99.90;;;;;;5046704;28;20037;-77
2023/02/03 23:05:19;;;;;;;9.35;1.48;;;3.60;99.90;;;;;;5045893;28;20025;-78
2023/02/03 23:07:46;;;;;;;6.35;1.02;;;3.60;99.90;;;;;;5047808;28;20067;-78
2023/02/03 23:10:17;;;;;;;6.75;1.30;;;3.60;99.90;;;;;;5042835;28;20040;-74
2023/02/03 23:12:43;;;;;;;10.07;1.30;;;3.60;99.90;;;;;;5047717;28;20088;-77
2023/02/03 23:15:10;;;;;;;12.40;1.40;;;3.60;99.90;;;;;;5048603;28;20548;-78
2023/02/03 23:17:36;;;;;;;8.57;1.65;;;3.60;99.90;;;;;;5039640;28;20160;-77
2023/02/03 23:20:02;;;;;;;6.03;1.42;;;3.50;99.90;;;;;;5046711;28;20602;-77
2023/02/03 23:22:28;;;;;;;7.35;1.00;;;3.50;99.90;;;;;;5043537;28;20051;-77
2023/02/03 23:24:54;;;;;;;7.80;1.23;;;3.50;99.90;;;;;;5040414;28;20485;-77
2023/02/03 23:27:20;;;;;;;8.90;1.10;;;3.50;99.90;;;;;;5045969;28;20029;-77
2023/02/03 23:29:45;;;;;;;6.22;1.08;;;3.50;99.90;;;;;;5045598;28;20036;-78
2023/02/03 23:32:11;;;;;;;14.90;1.08;;;3.50;99.90;;;;;;5046636;28;20099;-76
2023/02/03 23:37:22;;;;;;;8.32;1.02;;;3.50;99.90;;;;;;5043011;28;20036;-76
2023/02/03 23:39:51;;;;;;;9.23;1.23;;;3.50;99.90;;;;;;5045698;28;20029;-78
2023/02/03 23:42:17;;;;;;;15.52;1.90;;;3.50;99.90;;;;;;5046344;28;20895;-78
2023/02/03 23:44:43;;;;;;;9.10;2.15;;;3.40;99.90;;;;;;5046833;28;20045;-78
2023/02/03 23:47:09;;;;;;;8.07;1.20;;;3.50;99.90;;;;;;5048818;28;20086;-77
2023/02/03 23:49:35;;;;;;;5.28;0.90;;;3.40;99.90;;;;;;5050308;28;20041;-78
2023/02/03 23:52:01;;;;;;;8.85;1.38;;;3.40;99.90;;;;;;5044989;28;20589;-77
2023/02/03 23:54:26;;;;;;;9.30;1.40;;;3.40;99.90;;;;;;5053853;28;20027;-78
2023/02/03 23:56:52;;;;;;;10.63;1.27;;;3.40;99.90;;;;;;5045481;28;20119;-79
2023/02/03 23:59:18;;;;;;;12.45;1.50;;;3.40;99.90;;;;;;5046623;28;20497;-78
